sensor_id;sensor_type;location;lat;lon;timestamp;P1;durP1;ratioP1;P2;durP2;ratioP2
76978;SDS011;65911;47.502;19.148;2022-12-31T00:02:41;17.98;;;8.95;;
76978;SDS011;65911;47.502;19.148;2022-12-31T00:05:43;17.17;;;9.20;;
76978;SDS011;65911;47.502;19.148;2022-12-31T00:08:46;19.45;;;10.45;;
76978;SDS011;65911;47.502;19.148;2022-12-31T00:11:49;15.95;;;8.90;;
76978;SDS011;65911;47.502;19.148;2022-12-31T00:14:51;16.47;;;9.13;;
76978;SDS011;65911;47.502;19.148;2022-12-31T00:17:53;18.65;;;9.38;;
76978;SDS011;65911;47.502;19.148;2022-12-31T00:20:55;17.77;;;9.10;;
76978;SDS011;65911;47.502;19.148;2022-12-31T00:23:57;17.67;;;9.23;;
76978;SDS011;65911;47.502;19.148;2022-12-31T00:27:00;16.15;;;9.07;;
76978;SDS011;65911;47.502;19.148;2022-12-31T00:30:02;15.45;;;8.85;;
76978;SDS011;65911;47.502;19.148;2022-12-31T00:33:05;16.63;;;9.15;;
76978;SDS011;65911;47.502;19.148;2022-12-31T00:36:15;15.63;;;8.33;;
76978;SDS011;65911;47.502;19.148;2022-12-31T00:39:40;17.00;;;9.38;;
76978;SDS011;65911;47.502;19.148;2022-12-31T00:42:42;17.65;;;9.20;;
76978;SDS011;65911;47.502;19.148;2022-12-31T00:45:45;17.33;;;8.73;;
76978;SDS011;65911;47.502;19.148;2022-12-31T00:48:49;17.75;;;8.85;;
76978;SDS011;65911;47.502;19.148;2022-12-31T00:51:51;17.33;;;9.68;;
76978;SDS011;65911;47.502;19.148;2022-12-31T00:54:53;18.13;;;8.98;;
76978;SDS011;65911;47.502;19.148;2022-12-31T00:57:56;16.77;;;8.18;;
76978;SDS011;65911;47.502;19.148;2022-12-31T01:00:58;17.45;;;9.52;;
76978;SDS011;65911;47.502;19.148;2022-12-31T01:04:02;17.30;;;9.18;;
76978;SDS011;65911;47.502;19.148;2022-12-31T01:07:15;18.03;;;8.83;;
76978;SDS011;65911;47.502;19.148;2022-12-31T01:10:17;14.77;;;8.05;;
76978;SDS011;65911;47.502;19.148;2022-12-31T01:13:39;17.88;;;8.52;;
76978;SDS011;65911;47.502;19.148;2022-12-31T01:16:45;17.47;;;8.77;;
76978;SDS011;65911;47.502;19.148;2022-12-31T01:19:51;15.90;;;8.45;;
76978;SDS011;65911;47.502;19.148;2022-12-31T01:22:54;17.38;;;8.82;;
76978;SDS011;65911;47.502;19.148;2022-12-31T01:25:58;15.98;;;8.32;;
76978;SDS011;65911;47.502;19.148;2022-12-31T01:29:05;18.55;;;9.52;;
76978;SDS011;65911;47.502;19.148;2022-12-31T01:32:08;17.25;;;8.98;;
76978;SDS011;65911;47.502;19.148;2022-12-31T01:35:10;20.33;;;9.60;;
76978;SDS011;65911;47.502;19.148;2022-12-31T01:38:12;18.53;;;8.60;;
76978;SDS011;65911;47.502;19.148;2022-12-31T01:41:17;15.95;;;8.88;;
76978;SDS011;65911;47.502;19.148;2022-12-31T01:47:30;16.80;;;9.30;;
76978;SDS011;65911;47.502;19.148;2022-12-31T01:50:35;18.75;;;9.27;;
76978;SDS011;65911;47.502;19.148;2022-12-31T01:53:39;17.27;;;8.48;;
76978;SDS011;65911;47.502;19.148;2022-12-31T01:56:42;15.60;;;8.40;;
76978;SDS011;65911;47.502;19.148;2022-12-31T01:59:45;15.57;;;8.10;;
76978;SDS011;65911;47.502;19.148;2022-12-31T02:02:47;16.75;;;9.02;;
76978;SDS011;65911;47.502;19.148;2022-12-31T02:09:22;18.33;;;9.20;;
76978;SDS011;65911;47.502;19.148;2022-12-31T02:12:25;18.30;;;9.63;;
76978;SDS011;65911;47.502;19.148;2022-12-31T02:15:48;17.88;;;8.98;;
76978;SDS011;65911;47.502;19.148;2022-12-31T02:18:57;17.83;;;8.40;;
76978;SDS011;65911;47.502;19.148;2022-12-31T02:32:50;19.80;;;10.10;;
76978;SDS011;65911;47.502;19.148;2022-12-31T02:36:09;17.55;;;9.32;;
76978;SDS011;65911;47.502;19.148;2022-12-31T02:39:14;20.08;;;10.15;;
76978;SDS011;65911;47.502;19.148;2022-12-31T02:42:16;18.23;;;9.30;;
76978;SDS011;65911;47.502;19.148;2022-12-31T02:45:19;20.88;;;9.77;;
76978;SDS011;65911;47.502;19.148;2022-12-31T02:51:53;20.20;;;10.13;;
76978;SDS011;65911;47.502;19.148;2022-12-31T02:58:11;19.70;;;9.93;;
76978;SDS011;65911;47.502;19.148;2022-12-31T03:01:17;19.35;;;10.20;;
76978;SDS011;65911;47.502;19.148;2022-12-31T03:04:44;20.35;;;10.23;;
76978;SDS011;65911;47.502;19.148;2022-12-31T03:07:56;21.08;;;11.27;;
76978;SDS011;65911;47.502;19.148;2022-12-31T03:10:59;20.75;;;10.35;;
76978;SDS011;65911;47.502;19.148;2022-12-31T03:14:21;20.23;;;10.67;;
76978;SDS011;65911;47.502;19.148;2022-12-31T03:17:23;20.67;;;10.35;;
76978;SDS011;65911;47.502;19.148;2022-12-31T03:20:27;19.40;;;10.13;;
76978;SDS011;65911;47.502;19.148;2022-12-31T03:23:52;20.60;;;10.23;;
76978;SDS011;65911;47.502;19.148;2022-12-31T03:27:13;21.10;;;10.38;;
76978;SDS011;65911;47.502;19.148;2022-12-31T03:30:16;21.48;;;10.18;;
76978;SDS011;65911;47.502;19.148;2022-12-31T03:33:19;19.35;;;10.27;;
76978;SDS011;65911;47.502;19.148;2022-12-31T03:36:22;18.00;;;10.07;;
76978;SDS011;65911;47.502;19.148;2022-12-31T03:39:24;22.80;;;10.07;;
76978;SDS011;65911;47.502;19.148;2022-12-31T03:42:26;21.00;;;10.52;;
76978;SDS011;65911;47.502;19.148;2022-12-31T03:45:28;19.50;;;9.50;;
76978;SDS011;65911;47.502;19.148;2022-12-31T03:48:31;21.35;;;10.73;;
76978;SDS011;65911;47.502;19.148;2022-12-31T03:51:33;19.92;;;9.43;;
76978;SDS011;65911;47.502;19.148;2022-12-31T03:54:36;19.77;;;10.97;;
76978;SDS011;65911;47.502;19.148;2022-12-31T03:57:38;21.13;;;9.82;;
76978;SDS011;65911;47.502;19.148;2022-12-31T04:00:40;18.70;;;9.88;;
76978;SDS011;65911;47.502;19.148;2022-12-31T04:03:42;19.23;;;10.57;;
76978;SDS011;65911;47.502;19.148;2022-12-31T04:06:45;20.10;;;10.43;;
76978;SDS011;65911;47.502;19.148;2022-12-31T04:09:47;16.63;;;9.32;;
76978;SDS011;65911;47.502;19.148;2022-12-31T04:12:49;20.85;;;10.50;;
76978;SDS011;65911;47.502;19.148;2022-12-31T04:15:51;19.47;;;10.00;;
76978;SDS011;65911;47.502;19.148;2022-12-31T04:18:53;18.08;;;9.90;;
76978;SDS011;65911;47.502;19.148;2022-12-31T04:21:56;20.30;;;10.02;;
76978;SDS011;65911;47.502;19.148;2022-12-31T04:24:58;19.43;;;10.80;;
76978;SDS011;65911;47.502;19.148;2022-12-31T04:28:00;20.45;;;9.82;;
76978;SDS011;65911;47.502;19.148;2022-12-31T04:31:02;21.88;;;11.02;;
76978;SDS011;65911;47.502;19.148;2022-12-31T04:34:05;19.77;;;10.65;;
76978;SDS011;65911;47.502;19.148;2022-12-31T04:37:07;18.33;;;10.07;;
76978;SDS011;65911;47.502;19.148;2022-12-31T04:40:09;18.63;;;10.27;;
76978;SDS011;65911;47.502;19.148;2022-12-31T04:43:12;18.13;;;10.32;;
76978;SDS011;65911;47.502;19.148;2022-12-31T04:46:14;16.57;;;9.97;;
76978;SDS011;65911;47.502;19.148;2022-12-31T04:49:18;20.05;;;10.68;;
76978;SDS011;65911;47.502;19.148;2022-12-31T04:52:21;18.50;;;10.75;;
76978;SDS011;65911;47.502;19.148;2022-12-31T04:55:23;18.40;;;10.00;;
76978;SDS011;65911;47.502;19.148;2022-12-31T04:58:26;18.45;;;9.13;;
76978;SDS011;65911;47.502;19.148;2022-12-31T05:01:28;18.55;;;9.90;;
76978;SDS011;65911;47.502;19.148;2022-12-31T05:04:30;19.88;;;10.32;;
76978;SDS011;65911;47.502;19.148;2022-12-31T05:07:32;20.35;;;10.52;;
76978;SDS011;65911;47.502;19.148;2022-12-31T05:10:35;19.77;;;10.77;;
76978;SDS011;65911;47.502;19.148;2022-12-31T05:13:37;18.48;;;10.10;;
76978;SDS011;65911;47.502;19.148;2022-12-31T05:16:40;22.60;;;10.30;;
76978;SDS011;65911;47.502;19.148;2022-12-31T05:19:42;18.88;;;10.68;;
76978;SDS011;65911;47.502;19.148;2022-12-31T05:22:44;19.40;;;10.10;;
76978;SDS011;65911;47.502;19.148;2022-12-31T05:25:47;20.87;;;10.40;;
76978;SDS011;65911;47.502;19.148;2022-12-31T05:28:49;19.27;;;10.50;;
76978;SDS011;65911;47.502;19.148;2022-12-31T05:31:51;20.38;;;10.77;;
76978;SDS011;65911;47.502;19.148;2022-12-31T05:34:53;19.52;;;10.40;;
76978;SDS011;65911;47.502;19.148;2022-12-31T05:37:55;19.13;;;10.10;;
76978;SDS011;65911;47.502;19.148;2022-12-31T05:41:00;18.80;;;10.00;;
76978;SDS011;65911;47.502;19.148;2022-12-31T05:44:03;19.23;;;10.32;;
76978;SDS011;65911;47.502;19.148;2022-12-31T05:47:05;19.37;;;9.67;;
76978;SDS011;65911;47.502;19.148;2022-12-31T05:50:08;21.23;;;11.02;;
76978;SDS011;65911;47.502;19.148;2022-12-31T05:53:11;20.25;;;10.65;;
76978;SDS011;65911;47.502;19.148;2022-12-31T05:56:13;19.23;;;10.00;;
76978;SDS011;65911;47.502;19.148;2022-12-31T05:59:16;18.42;;;10.63;;
76978;SDS011;65911;47.502;19.148;2022-12-31T06:02:18;19.35;;;10.77;;
76978;SDS011;65911;47.502;19.148;2022-12-31T06:05:21;19.58;;;10.40;;
76978;SDS011;65911;47.502;19.148;2022-12-31T06:08:27;17.20;;;9.75;;
76978;SDS011;65911;47.502;19.148;2022-12-31T06:11:29;18.55;;;10.40;;
76978;SDS011;65911;47.502;19.148;2022-12-31T06:14:32;20.25;;;10.93;;
76978;SDS011;65911;47.502;19.148;2022-12-31T06:17:34;19.87;;;10.67;;
76978;SDS011;65911;47.502;19.148;2022-12-31T06:20:36;18.50;;;10.82;;
76978;SDS011;65911;47.502;19.148;2022-12-31T06:23:39;19.50;;;10.65;;
76978;SDS011;65911;47.502;19.148;2022-12-31T06:26:41;20.97;;;10.70;;
76978;SDS011;65911;47.502;19.148;2022-12-31T06:29:43;19.20;;;10.40;;
76978;SDS011;65911;47.502;19.148;2022-12-31T06:32:46;22.95;;;11.25;;
76978;SDS011;65911;47.502;19.148;2022-12-31T06:35:48;21.98;;;11.80;;
76978;SDS011;65911;47.502;19.148;2022-12-31T06:38:56;20.88;;;10.77;;
76978;SDS011;65911;47.502;19.148;2022-12-31T06:41:58;21.13;;;11.18;;
76978;SDS011;65911;47.502;19.148;2022-12-31T06:45:00;22.23;;;11.50;;
76978;SDS011;65911;47.502;19.148;2022-12-31T06:48:03;20.80;;;10.80;;
76978;SDS011;65911;47.502;19.148;2022-12-31T06:51:06;19.92;;;11.05;;
76978;SDS011;65911;47.502;19.148;2022-12-31T06:54:17;21.83;;;10.95;;
76978;SDS011;65911;47.502;19.148;2022-12-31T06:57:20;23.40;;;11.43;;
76978;SDS011;65911;47.502;19.148;2022-12-31T07:00:24;21.15;;;11.38;;
76978;SDS011;65911;47.502;19.148;2022-12-31T07:03:39;21.95;;;11.05;;
76978;SDS011;65911;47.502;19.148;2022-12-31T07:06:54;26.10;;;12.25;;
76978;SDS011;65911;47.502;19.148;2022-12-31T07:20:30;22.83;;;11.73;;
76978;SDS011;65911;47.502;19.148;2022-12-31T07:23:32;22.85;;;11.77;;
76978;SDS011;65911;47.502;19.148;2022-12-31T07:30:27;23.40;;;11.43;;
76978;SDS011;65911;47.502;19.148;2022-12-31T07:37:07;24.50;;;11.77;;
76978;SDS011;65911;47.502;19.148;2022-12-31T07:46:54;22.77;;;11.57;;
76978;SDS011;65911;47.502;19.148;2022-12-31T07:49:58;25.60;;;13.13;;
76978;SDS011;65911;47.502;19.148;2022-12-31T07:53:00;23.40;;;11.17;;
76978;SDS011;65911;47.502;19.148;2022-12-31T07:56:04;25.83;;;12.85;;
76978;SDS011;65911;47.502;19.148;2022-12-31T08:12:31;24.25;;;11.95;;
76978;SDS011;65911;47.502;19.148;2022-12-31T08:15:36;25.40;;;12.70;;
76978;SDS011;65911;47.502;19.148;2022-12-31T08:18:39;25.92;;;13.20;;
76978;SDS011;65911;47.502;19.148;2022-12-31T08:21:52;28.83;;;13.18;;
76978;SDS011;65911;47.502;19.148;2022-12-31T08:31:54;27.27;;;13.23;;
76978;SDS011;65911;47.502;19.148;2022-12-31T08:35:03;25.80;;;13.13;;
76978;SDS011;65911;47.502;19.148;2022-12-31T08:41:40;22.88;;;12.00;;
76978;SDS011;65911;47.502;19.148;2022-12-31T08:51:28;24.83;;;12.63;;
76978;SDS011;65911;47.502;19.148;2022-12-31T08:54:29;26.95;;;13.10;;
76978;SDS011;65911;47.502;19.148;2022-12-31T08:57:34;25.53;;;12.90;;
76978;SDS011;65911;47.502;19.148;2022-12-31T09:00:59;27.38;;;13.02;;
76978;SDS011;65911;47.502;19.148;2022-12-31T09:07:30;30.23;;;12.50;;
76978;SDS011;65911;47.502;19.148;2022-12-31T09:20:30;25.85;;;13.07;;
76978;SDS011;65911;47.502;19.148;2022-12-31T09:23:45;27.45;;;13.73;;
76978;SDS011;65911;47.502;19.148;2022-12-31T09:30:12;25.93;;;13.30;;
76978;SDS011;65911;47.502;19.148;2022-12-31T09:37:42;26.20;;;13.00;;
76978;SDS011;65911;47.502;19.148;2022-12-31T09:44:21;24.92;;;12.75;;
76978;SDS011;65911;47.502;19.148;2022-12-31T09:54:52;25.45;;;12.55;;
76978;SDS011;65911;47.502;19.148;2022-12-31T10:04:51;26.27;;;12.83;;
76978;SDS011;65911;47.502;19.148;2022-12-31T10:08:28;25.45;;;12.57;;
76978;SDS011;65911;47.502;19.148;2022-12-31T10:32:42;26.10;;;13.18;;
76978;SDS011;65911;47.502;19.148;2022-12-31T10:35:53;25.08;;;12.73;;
76978;SDS011;65911;47.502;19.148;2022-12-31T11:02:47;24.05;;;13.07;;
76978;SDS011;65911;47.502;19.148;2022-12-31T11:38:39;22.00;;;12.98;;
76978;SDS011;65911;47.502;19.148;2022-12-31T11:41:53;26.42;;;14.18;;
76978;SDS011;65911;47.502;19.148;2022-12-31T11:45:00;24.97;;;13.00;;
76978;SDS011;65911;47.502;19.148;2022-12-31T11:59:01;24.60;;;13.27;;
76978;SDS011;65911;47.502;19.148;2022-12-31T12:05:25;23.23;;;13.00;;
76978;SDS011;65911;47.502;19.148;2022-12-31T12:08:29;23.88;;;13.88;;
76978;SDS011;65911;47.502;19.148;2022-12-31T12:11:36;22.63;;;12.65;;
76978;SDS011;65911;47.502;19.148;2022-12-31T12:14:41;23.45;;;13.27;;
76978;SDS011;65911;47.502;19.148;2022-12-31T12:17:48;22.47;;;12.30;;
76978;SDS011;65911;47.502;19.148;2022-12-31T12:20:51;22.88;;;12.82;;
76978;SDS011;65911;47.502;19.148;2022-12-31T12:24:04;23.30;;;12.75;;
76978;SDS011;65911;47.502;19.148;2022-12-31T12:27:39;23.37;;;14.10;;
76978;SDS011;65911;47.502;19.148;2022-12-31T12:30:41;24.65;;;13.68;;
76978;SDS011;65911;47.502;19.148;2022-12-31T12:33:49;21.15;;;12.32;;
76978;SDS011;65911;47.502;19.148;2022-12-31T12:36:51;23.85;;;12.85;;
76978;SDS011;65911;47.502;19.148;2022-12-31T12:39:58;21.35;;;12.32;;
76978;SDS011;65911;47.502;19.148;2022-12-31T12:43:03;22.35;;;13.50;;
76978;SDS011;65911;47.502;19.148;2022-12-31T12:46:06;24.90;;;13.80;;
76978;SDS011;65911;47.502;19.148;2022-12-31T12:49:23;22.83;;;13.17;;
76978;SDS011;65911;47.502;19.148;2022-12-31T12:52:44;23.88;;;13.60;;
76978;SDS011;65911;47.502;19.148;2022-12-31T12:59:17;23.13;;;13.17;;
76978;SDS011;65911;47.502;19.148;2022-12-31T13:09:17;24.05;;;13.68;;
76978;SDS011;65911;47.502;19.148;2022-12-31T13:19:16;23.98;;;13.63;;
76978;SDS011;65911;47.502;19.148;2022-12-31T13:22:31;23.83;;;12.77;;
76978;SDS011;65911;47.502;19.148;2022-12-31T13:28:47;22.23;;;13.30;;
76978;SDS011;65911;47.502;19.148;2022-12-31T13:31:51;23.67;;;14.50;;
76978;SDS011;65911;47.502;19.148;2022-12-31T13:34:55;23.48;;;13.02;;
76978;SDS011;65911;47.502;19.148;2022-12-31T13:38:04;24.13;;;13.80;;
76978;SDS011;65911;47.502;19.148;2022-12-31T13:47:38;20.75;;;12.48;;
76978;SDS011;65911;47.502;19.148;2022-12-31T13:50:56;23.58;;;13.43;;
76978;SDS011;65911;47.502;19.148;2022-12-31T13:54:03;23.73;;;13.20;;
76978;SDS011;65911;47.502;19.148;2022-12-31T13:57:10;22.45;;;13.55;;
76978;SDS011;65911;47.502;19.148;2022-12-31T14:00:21;21.77;;;12.60;;
76978;SDS011;65911;47.502;19.148;2022-12-31T14:03:38;21.23;;;12.87;;
76978;SDS011;65911;47.502;19.148;2022-12-31T14:07:01;19.38;;;12.50;;
76978;SDS011;65911;47.502;19.148;2022-12-31T14:10:12;21.60;;;12.88;;
76978;SDS011;65911;47.502;19.148;2022-12-31T14:13:28;22.17;;;13.30;;
76978;SDS011;65911;47.502;19.148;2022-12-31T14:16:50;22.08;;;12.90;;
76978;SDS011;65911;47.502;19.148;2022-12-31T14:26:51;20.10;;;12.30;;
76978;SDS011;65911;47.502;19.148;2022-12-31T14:29:58;20.65;;;12.10;;
76978;SDS011;65911;47.502;19.148;2022-12-31T14:36:55;23.17;;;13.13;;
76978;SDS011;65911;47.502;19.148;2022-12-31T14:40:13;20.10;;;11.85;;
76978;SDS011;65911;47.502;19.148;2022-12-31T14:50:25;18.17;;;11.82;;
76978;SDS011;65911;47.502;19.148;2022-12-31T14:53:28;22.05;;;13.02;;
76978;SDS011;65911;47.502;19.148;2022-12-31T14:56:39;21.65;;;13.10;;
76978;SDS011;65911;47.502;19.148;2022-12-31T15:00:30;19.17;;;12.53;;
76978;SDS011;65911;47.502;19.148;2022-12-31T15:06:38;19.35;;;12.32;;
76978;SDS011;65911;47.502;19.148;2022-12-31T15:10:01;21.67;;;13.30;;
76978;SDS011;65911;47.502;19.148;2022-12-31T15:13:36;20.70;;;12.00;;
76978;SDS011;65911;47.502;19.148;2022-12-31T15:20:16;21.27;;;12.70;;
76978;SDS011;65911;47.502;19.148;2022-12-31T15:23:33;20.50;;;13.20;;
76978;SDS011;65911;47.502;19.148;2022-12-31T15:26:36;20.45;;;13.20;;
76978;SDS011;65911;47.502;19.148;2022-12-31T15:29:48;20.23;;;12.90;;
76978;SDS011;65911;47.502;19.148;2022-12-31T15:32:50;18.63;;;12.20;;
76978;SDS011;65911;47.502;19.148;2022-12-31T15:35:53;18.80;;;12.10;;
76978;SDS011;65911;47.502;19.148;2022-12-31T15:42:27;18.50;;;12.70;;
76978;SDS011;65911;47.502;19.148;2022-12-31T15:45:42;21.27;;;12.77;;
76978;SDS011;65911;47.502;19.148;2022-12-31T15:51:59;20.10;;;12.88;;
76978;SDS011;65911;47.502;19.148;2022-12-31T15:55:03;19.45;;;12.43;;
76978;SDS011;65911;47.502;19.148;2022-12-31T15:58:09;19.33;;;12.68;;
76978;SDS011;65911;47.502;19.148;2022-12-31T16:01:19;22.00;;;13.88;;
76978;SDS011;65911;47.502;19.148;2022-12-31T16:04:30;19.80;;;13.10;;
76978;SDS011;65911;47.502;19.148;2022-12-31T16:07:40;19.95;;;13.18;;
76978;SDS011;65911;47.502;19.148;2022-12-31T16:10:42;21.75;;;12.98;;
76978;SDS011;65911;47.502;19.148;2022-12-31T16:13:46;20.27;;;12.77;;
76978;SDS011;65911;47.502;19.148;2022-12-31T16:16:56;20.05;;;13.40;;
76978;SDS011;65911;47.502;19.148;2022-12-31T16:20:01;18.42;;;12.77;;
76978;SDS011;65911;47.502;19.148;2022-12-31T16:23:22;19.60;;;13.05;;
76978;SDS011;65911;47.502;19.148;2022-12-31T16:26:34;19.20;;;13.30;;
76978;SDS011;65911;47.502;19.148;2022-12-31T16:29:44;22.13;;;14.05;;
76978;SDS011;65911;47.502;19.148;2022-12-31T16:33:00;22.30;;;13.98;;
76978;SDS011;65911;47.502;19.148;2022-12-31T16:36:04;21.83;;;13.60;;
76978;SDS011;65911;47.502;19.148;2022-12-31T16:39:29;21.00;;;13.50;;
76978;SDS011;65911;47.502;19.148;2022-12-31T16:42:36;19.92;;;12.73;;
76978;SDS011;65911;47.502;19.148;2022-12-31T16:45:45;21.23;;;13.90;;
76978;SDS011;65911;47.502;19.148;2022-12-31T16:48:55;20.45;;;13.50;;
76978;SDS011;65911;47.502;19.148;2022-12-31T16:52:00;21.90;;;14.00;;
76978;SDS011;65911;47.502;19.148;2022-12-31T16:55:06;21.17;;;14.23;;
76978;SDS011;65911;47.502;19.148;2022-12-31T16:58:17;22.55;;;14.00;;
76978;SDS011;65911;47.502;19.148;2022-12-31T17:01:23;20.35;;;13.52;;
76978;SDS011;65911;47.502;19.148;2022-12-31T17:04:26;20.42;;;14.13;;
76978;SDS011;65911;47.502;19.148;2022-12-31T17:10:34;22.52;;;14.20;;
76978;SDS011;65911;47.502;19.148;2022-12-31T17:13:37;21.73;;;13.90;;
76978;SDS011;65911;47.502;19.148;2022-12-31T17:16:52;20.73;;;14.33;;
76978;SDS011;65911;47.502;19.148;2022-12-31T17:20:05;22.73;;;14.23;;
76978;SDS011;65911;47.502;19.148;2022-12-31T17:23:10;21.02;;;13.88;;
76978;SDS011;65911;47.502;19.148;2022-12-31T17:26:29;21.75;;;13.93;;
76978;SDS011;65911;47.502;19.148;2022-12-31T17:29:32;23.00;;;14.27;;
76978;SDS011;65911;47.502;19.148;2022-12-31T17:32:35;21.13;;;14.43;;
76978;SDS011;65911;47.502;19.148;2022-12-31T17:35:38;21.95;;;14.25;;
76978;SDS011;65911;47.502;19.148;2022-12-31T17:38:44;19.90;;;13.77;;
76978;SDS011;65911;47.502;19.148;2022-12-31T17:41:47;23.23;;;14.60;;
76978;SDS011;65911;47.502;19.148;2022-12-31T17:44:53;23.98;;;15.15;;
76978;SDS011;65911;47.502;19.148;2022-12-31T17:47:57;22.70;;;14.57;;
76978;SDS011;65911;47.502;19.148;2022-12-31T17:51:00;23.70;;;14.77;;
76978;SDS011;65911;47.502;19.148;2022-12-31T17:54:05;22.65;;;14.27;;
76978;SDS011;65911;47.502;19.148;2022-12-31T17:57:19;24.27;;;15.50;;
76978;SDS011;65911;47.502;19.148;2022-12-31T18:00:24;25.10;;;14.50;;
76978;SDS011;65911;47.502;19.148;2022-12-31T18:03:27;25.75;;;14.57;;
76978;SDS011;65911;47.502;19.148;2022-12-31T18:06:29;23.95;;;15.10;;
76978;SDS011;65911;47.502;19.148;2022-12-31T18:09:31;22.40;;;14.27;;
76978;SDS011;65911;47.502;19.148;2022-12-31T18:12:34;24.77;;;15.80;;
76978;SDS011;65911;47.502;19.148;2022-12-31T18:15:36;23.25;;;14.80;;
76978;SDS011;65911;47.502;19.148;2022-12-31T18:18:39;21.87;;;14.07;;
76978;SDS011;65911;47.502;19.148;2022-12-31T18:21:42;24.20;;;15.32;;
76978;SDS011;65911;47.502;19.148;2022-12-31T18:24:46;23.50;;;15.40;;
76978;SDS011;65911;47.502;19.148;2022-12-31T18:27:49;24.77;;;15.38;;
76978;SDS011;65911;47.502;19.148;2022-12-31T18:30:52;23.08;;;15.18;;
76978;SDS011;65911;47.502;19.148;2022-12-31T18:33:55;23.92;;;15.10;;
76978;SDS011;65911;47.502;19.148;2022-12-31T18:36:58;25.17;;;14.75;;
76978;SDS011;65911;47.502;19.148;2022-12-31T18:40:00;24.13;;;15.50;;
76978;SDS011;65911;47.502;19.148;2022-12-31T18:43:03;24.63;;;15.30;;
76978;SDS011;65911;47.502;19.148;2022-12-31T18:46:08;25.75;;;15.50;;
76978;SDS011;65911;47.502;19.148;2022-12-31T18:49:13;24.20;;;15.10;;
76978;SDS011;65911;47.502;19.148;2022-12-31T18:52:16;25.13;;;15.20;;
76978;SDS011;65911;47.502;19.148;2022-12-31T18:55:24;24.75;;;15.68;;
76978;SDS011;65911;47.502;19.148;2022-12-31T18:58:34;25.80;;;15.90;;
76978;SDS011;65911;47.502;19.148;2022-12-31T19:01:37;26.33;;;16.17;;
76978;SDS011;65911;47.502;19.148;2022-12-31T19:04:40;25.00;;;16.23;;
76978;SDS011;65911;47.502;19.148;2022-12-31T19:07:42;24.13;;;16.23;;
76978;SDS011;65911;47.502;19.148;2022-12-31T19:10:45;25.90;;;16.03;;
76978;SDS011;65911;47.502;19.148;2022-12-31T19:13:47;27.45;;;17.23;;
76978;SDS011;65911;47.502;19.148;2022-12-31T19:16:50;27.27;;;16.30;;
76978;SDS011;65911;47.502;19.148;2022-12-31T19:19:54;26.67;;;16.07;;
76978;SDS011;65911;47.502;19.148;2022-12-31T19:22:56;25.20;;;17.38;;
76978;SDS011;65911;47.502;19.148;2022-12-31T19:25:58;25.92;;;16.13;;
76978;SDS011;65911;47.502;19.148;2022-12-31T19:29:00;26.33;;;17.23;;
76978;SDS011;65911;47.502;19.148;2022-12-31T19:32:03;24.15;;;16.73;;
76978;SDS011;65911;47.502;19.148;2022-12-31T19:35:05;27.33;;;17.35;;
76978;SDS011;65911;47.502;19.148;2022-12-31T19:38:14;23.73;;;16.05;;
76978;SDS011;65911;47.502;19.148;2022-12-31T19:41:18;25.20;;;17.10;;
76978;SDS011;65911;47.502;19.148;2022-12-31T19:44:20;28.52;;;17.95;;
76978;SDS011;65911;47.502;19.148;2022-12-31T19:47:23;27.30;;;17.80;;
76978;SDS011;65911;47.502;19.148;2022-12-31T19:50:25;26.10;;;17.33;;
76978;SDS011;65911;47.502;19.148;2022-12-31T19:53:28;27.50;;;18.48;;
76978;SDS011;65911;47.502;19.148;2022-12-31T19:56:30;27.20;;;17.83;;
76978;SDS011;65911;47.502;19.148;2022-12-31T19:59:32;28.38;;;17.75;;
76978;SDS011;65911;47.502;19.148;2022-12-31T20:02:35;28.48;;;18.00;;
76978;SDS011;65911;47.502;19.148;2022-12-31T20:05:37;25.55;;;16.83;;
76978;SDS011;65911;47.502;19.148;2022-12-31T20:08:39;29.67;;;18.35;;
76978;SDS011;65911;47.502;19.148;2022-12-31T20:11:44;27.50;;;17.57;;
76978;SDS011;65911;47.502;19.148;2022-12-31T20:14:49;29.17;;;18.65;;
76978;SDS011;65911;47.502;19.148;2022-12-31T20:17:51;29.75;;;17.63;;
76978;SDS011;65911;47.502;19.148;2022-12-31T20:20:53;28.23;;;19.17;;
76978;SDS011;65911;47.502;19.148;2022-12-31T20:23:57;27.50;;;17.52;;
76978;SDS011;65911;47.502;19.148;2022-12-31T20:26:59;29.20;;;18.30;;
76978;SDS011;65911;47.502;19.148;2022-12-31T20:30:01;28.92;;;19.05;;
76978;SDS011;65911;47.502;19.148;2022-12-31T20:33:03;27.27;;;17.58;;
76978;SDS011;65911;47.502;19.148;2022-12-31T20:36:07;29.08;;;18.52;;
76978;SDS011;65911;47.502;19.148;2022-12-31T20:39:10;31.20;;;19.65;;
76978;SDS011;65911;47.502;19.148;2022-12-31T20:42:12;31.10;;;18.80;;
76978;SDS011;65911;47.502;19.148;2022-12-31T20:45:15;27.63;;;19.02;;
76978;SDS011;65911;47.502;19.148;2022-12-31T20:48:17;28.85;;;18.05;;
76978;SDS011;65911;47.502;19.148;2022-12-31T20:51:19;30.60;;;19.33;;
76978;SDS011;65911;47.502;19.148;2022-12-31T20:54:22;27.27;;;18.17;;
76978;SDS011;65911;47.502;19.148;2022-12-31T20:57:24;30.45;;;19.75;;
76978;SDS011;65911;47.502;19.148;2022-12-31T21:00:34;27.90;;;19.10;;
76978;SDS011;65911;47.502;19.148;2022-12-31T21:03:37;27.42;;;18.88;;
76978;SDS011;65911;47.502;19.148;2022-12-31T21:07:01;29.65;;;19.45;;
76978;SDS011;65911;47.502;19.148;2022-12-31T21:10:03;29.77;;;20.00;;
76978;SDS011;65911;47.502;19.148;2022-12-31T21:13:06;30.33;;;19.07;;
76978;SDS011;65911;47.502;19.148;2022-12-31T21:16:08;31.05;;;20.48;;
76978;SDS011;65911;47.502;19.148;2022-12-31T21:19:10;29.67;;;19.08;;
76978;SDS011;65911;47.502;19.148;2022-12-31T21:22:13;28.27;;;19.53;;
76978;SDS011;65911;47.502;19.148;2022-12-31T21:25:15;29.83;;;20.15;;
76978;SDS011;65911;47.502;19.148;2022-12-31T21:28:17;31.35;;;20.75;;
76978;SDS011;65911;47.502;19.148;2022-12-31T21:31:19;30.27;;;21.17;;
76978;SDS011;65911;47.502;19.148;2022-12-31T21:34:22;30.90;;;19.38;;
76978;SDS011;65911;47.502;19.148;2022-12-31T21:37:24;29.58;;;20.10;;
76978;SDS011;65911;47.502;19.148;2022-12-31T21:40:47;32.40;;;21.95;;
76978;SDS011;65911;47.502;19.148;2022-12-31T21:43:49;36.60;;;22.07;;
76978;SDS011;65911;47.502;19.148;2022-12-31T21:46:56;35.42;;;22.08;;
76978;SDS011;65911;47.502;19.148;2022-12-31T21:50:37;34.30;;;21.67;;
76978;SDS011;65911;47.502;19.148;2022-12-31T21:53:39;34.07;;;22.50;;
76978;SDS011;65911;47.502;19.148;2022-12-31T21:56:41;35.25;;;22.05;;
76978;SDS011;65911;47.502;19.148;2022-12-31T21:59:43;34.65;;;22.77;;
76978;SDS011;65911;47.502;19.148;2022-12-31T22:03:24;37.47;;;22.60;;
76978;SDS011;65911;47.502;19.148;2022-12-31T22:06:29;37.22;;;23.00;;
76978;SDS011;65911;47.502;19.148;2022-12-31T22:09:32;37.67;;;24.08;;
76978;SDS011;65911;47.502;19.148;2022-12-31T22:12:34;40.00;;;24.50;;
76978;SDS011;65911;47.502;19.148;2022-12-31T22:15:36;36.67;;;22.80;;
76978;SDS011;65911;47.502;19.148;2022-12-31T22:18:40;40.10;;;24.13;;
76978;SDS011;65911;47.502;19.148;2022-12-31T22:21:43;36.88;;;22.92;;
76978;SDS011;65911;47.502;19.148;2022-12-31T22:24:45;34.93;;;23.37;;
76978;SDS011;65911;47.502;19.148;2022-12-31T22:27:47;38.65;;;23.17;;